Carmolandia, Brazil
Current Conditions -  °F | °C
As of 10:00 PM on Tuesday 21 Oct 2014 (Local Time) from SBIZ Reporting Station
Clear Clear  
Wind Chill: 75°   Ceiling: Unl
Heat Index: 75°   Visibility: 6mi
Dew Point: 70°   Wind: 0mph
Humidity: 83%   Direction: NA
Pressure: 29.88"   Gusts: NA
Location:  7.03°S, 48.4°W
Report Text: SBIZ 220100Z 00000KT CAVOK 24/21 Q1012
Loading
Personal Weather Stations






























Interactive Weather Map
Tropical Storm Tracking
New forecast layout! Learn more

10-Day Weather Forecast

Advertisements
Track Severe Weather on mobile